Главная страница
METAR-TAF:

METAR-TAF

Аэропорты :

Новый Орлеан, Луизиана, США

широта: 29-59-34N, долгота: 090-15-03W, высота над уровнем моря: 1 м

Текущие метеонаблюдения

Эта сводка был подготовлена 37 минут назад, в 16:53 UTC
Ветер 6 Узел от северо-северо-восточный
Температура 10°C
Влажность 43%
Давление 1029 hPa
Видимость: 16.1 км
небольшая облачность на высоте 1000 фута
небольшая облачность на высоте 12000 фута
Отдельные облака на высоте 25000 фута

METAR: KMSY 191653Z 02006KT 10SM FEW010 FEW120 SCT250 10/M02 A3039 RMK AO2 SLP295 FU FEW010 T01001022

Время: 11:30 (17:30 UTC)

Прогноз

Эта сводка был подготовлена 5 часа и 59 минут назад, в 11:31 UTC
Прогноз действительный с 19-го 12 UTC до 20-го 18 UTC
Ветер 5 Узел от восточный
Видимость: 10 км
Рассеянная облачность на высоте 20000 фута
С 19-го 2200 UTC
Ветер 6 Узел от восточный
Видимость: 10 км
Рассеянная облачность на высоте 8000 фута

TAF: KMSY 191131Z 1912/2018 08005KT P6SM BKN200 FM192200 10006KT P6SM BKN080

Метеонаблюдения и прогнозы для более 4000 аэропортов (сводки METAR и TAF).

Имеющиеся станции представлены на карте желтыми и красными точками.

Чтобы увидеть название станции, наведите на нее мышь.

Затем щелкните, чтобы увидеть метеонаблюдения и метеопрогнозы.

Управление картой: чтобы увеличить масштаб, щелкните зеленые кнопки с черным крестиком; чтобы уменьшить масштаб, щелкните зеленую кнопку с тире; для просмотра соседних карт щелкайте зеленые стрелки.


METAR-TAF: